Time;durP1;ratioP1;P1;durP2;ratioP2;P2;SDS_P1;SDS_P2;PMS_P1;PMS_P2;Temp;Humidity;BMP_temperature;BMP_pressure;BME280_temperature;BME280_humidity;BME280_pressure;Samples;Min_cycle;Max_cycle;Signal;HPM_P1;HPM_P2
2023/10/20 00:00:14;;;;;;;4.35;1.33;;;0.70;99.90;;;;;;5079932;28;20208;-88
2023/10/20 00:02:43;;;;;;;3.03;1.38;;;0.70;99.90;;;;;;5089405;28;20187;-88
2023/10/20 00:05:10;;;;;;;4.75;1.35;;;0.80;99.90;;;;;;5069266;28;20192;-86
2023/10/20 00:07:38;;;;;;;3.08;1.10;;;0.70;99.90;;;;;;5086259;28;20185;-87
2023/10/20 00:10:09;;;;;;;3.70;1.38;;;0.70;99.90;;;;;;5086617;28;20211;-86
2023/10/20 00:12:38;;;;;;;3.08;1.15;;;0.70;99.90;;;;;;5089343;28;20227;-87
2023/10/20 00:15:13;;;;;;;2.15;1.15;;;0.60;99.90;;;;;;5073159;28;20199;-85
2023/10/20 00:17:42;;;;;;;3.08;1.15;;;0.70;99.90;;;;;;5089318;28;20658;-87
2023/10/20 00:20:11;;;;;;;1.95;1.10;;;0.70;99.90;;;;;;5082495;28;20213;-87
2023/10/20 00:22:40;;;;;;;3.63;1.40;;;0.80;99.90;;;;;;5053235;28;20646;-87
2023/10/20 00:25:11;;;;;;;2.60;1.20;;;0.70;99.90;;;;;;5074723;28;20184;-87
2023/10/20 00:27:41;;;;;;;4.07;1.45;;;0.80;99.90;;;;;;5051573;28;20197;-86
2023/10/20 00:30:09;;;;;;;4.18;1.48;;;0.80;99.90;;;;;;5068615;28;20223;-87
2023/10/20 00:32:40;;;;;;;2.58;1.25;;;0.80;99.90;;;;;;5077170;28;20208;-88
2023/10/20 00:35:13;;;;;;;2.47;1.23;;;0.70;99.90;;;;;;5070890;28;20231;-88
2023/10/20 00:37:42;;;;;;;3.03;1.25;;;0.60;99.90;;;;;;5097427;28;20433;-87
2023/10/20 00:40:11;;;;;;;1.98;1.10;;;0.70;99.90;;;;;;5087161;28;20266;-86
2023/10/20 00:42:39;;;;;;;3.00;1.50;;;0.60;99.90;;;;;;5070968;28;20326;-85
2023/10/20 00:45:08;;;;;;;4.28;1.55;;;0.70;99.90;;;;;;5058702;28;20196;-87
2023/10/20 00:47:38;;;;;;;3.85;1.50;;;0.80;99.90;;;;;;5070982;28;20203;-87
2023/10/20 00:50:14;;;;;;;2.58;1.40;;;0.70;99.90;;;;;;5071632;28;20199;-86
2023/10/20 00:52:46;;;;;;;3.03;1.50;;;0.70;99.90;;;;;;5073634;28;20953;-87
2023/10/20 00:55:15;;;;;;;3.08;1.50;;;0.60;99.90;;;;;;5074409;28;20192;-87
2023/10/20 00:57:46;;;;;;;3.10;1.40;;;0.60;99.90;;;;;;5062340;28;20180;-87
2023/10/20 01:00:15;;;;;;;3.90;1.60;;;0.60;99.90;;;;;;5089213;28;20319;-87
2023/10/20 01:02:42;;;;;;;5.70;1.50;;;0.60;99.90;;;;;;5079569;28;20187;-87
2023/10/20 01:05:14;;;;;;;2.88;1.30;;;0.70;99.90;;;;;;5078267;28;20534;-86
2023/10/20 01:07:43;;;;;;;3.28;1.55;;;0.80;99.90;;;;;;5087360;28;20186;-87
2023/10/20 01:10:11;;;;;;;2.20;1.20;;;0.70;99.90;;;;;;5072506;28;20200;-87
2023/10/20 01:12:39;;;;;;;2.40;1.23;;;0.70;99.90;;;;;;5072197;28;20260;-87
2023/10/20 01:15:08;;;;;;;2.20;0.98;;;0.70;99.90;;;;;;5089252;28;20566;-87
2023/10/20 01:17:35;;;;;;;3.55;1.30;;;0.80;99.90;;;;;;5079794;28;20219;-87
2023/10/20 01:20:05;;;;;;;3.60;1.30;;;0.70;99.90;;;;;;5078341;28;20234;-87
2023/10/20 01:22:34;;;;;;;4.53;1.27;;;0.60;99.90;;;;;;5056424;28;20196;-87
2023/10/20 01:25:03;;;;;;;2.60;1.13;;;0.70;99.90;;;;;;5084077;28;20279;-87
2023/10/20 01:27:31;;;;;;;2.95;1.33;;;0.70;99.90;;;;;;5066535;28;20188;-86
2023/10/20 01:29:59;;;;;;;2.80;1.40;;;0.70;99.90;;;;;;5084666;28;20188;-86
2023/10/20 01:32:26;;;;;;;2.75;1.45;;;0.70;99.90;;;;;;5062519;28;20822;-86
2023/10/20 01:34:54;;;;;;;3.92;1.10;;;0.70;99.90;;;;;;5069474;28;20223;-85
2023/10/20 01:37:22;;;;;;;2.65;1.30;;;0.70;99.90;;;;;;5082531;28;20192;-86
2023/10/20 01:39:50;;;;;;;2.47;1.10;;;0.80;99.90;;;;;;5075258;28;20189;-87
2023/10/20 01:42:18;;;;;;;2.00;1.35;;;0.70;99.90;;;;;;5090316;28;20210;-86
2023/10/20 01:44:46;;;;;;;2.88;1.25;;;0.80;99.90;;;;;;5083753;28;20181;-87
2023/10/20 01:47:14;;;;;;;3.75;1.40;;;0.80;99.90;;;;;;5083839;28;20274;-87
2023/10/20 01:49:42;;;;;;;3.45;1.48;;;0.80;99.90;;;;;;5067698;28;20187;-86
2023/10/20 01:52:10;;;;;;;4.30;1.40;;;0.80;99.90;;;;;;5083842;28;20235;-86
2023/10/20 01:54:38;;;;;;;2.80;1.33;;;0.90;99.90;;;;;;5069605;28;20267;-87
2023/10/20 01:57:05;;;;;;;2.80;1.35;;;0.90;99.90;;;;;;5088414;28;20195;-86
2023/10/20 01:59:33;;;;;;;2.33;1.20;;;0.90;99.90;;;;;;5084915;28;20200;-86
2023/10/20 02:02:01;;;;;;;2.97;1.60;;;0.80;99.90;;;;;;5071404;28;20215;-87
2023/10/20 02:04:29;;;;;;;2.92;1.50;;;0.80;99.90;;;;;;5088068;28;20235;-85
2023/10/20 02:06:56;;;;;;;3.10;1.65;;;0.90;99.90;;;;;;5056560;28;20227;-87
2023/10/20 02:09:25;;;;;;;3.40;1.80;;;0.90;99.90;;;;;;5070393;28;20658;-87
2023/10/20 02:11:57;;;;;;;3.58;1.88;;;1.00;99.90;;;;;;5079153;28;20192;-86
2023/10/20 02:14:25;;;;;;;3.95;1.52;;;0.90;99.90;;;;;;5070548;28;20204;-87
2023/10/20 02:16:54;;;;;;;3.08;1.50;;;0.90;99.90;;;;;;5085931;28;20222;-86
2023/10/20 02:19:22;;;;;;;3.33;1.85;;;1.00;99.90;;;;;;5072122;28;20287;-86
2023/10/20 02:21:51;;;;;;;2.67;1.70;;;1.00;99.90;;;;;;5077272;28;20211;-86
2023/10/20 02:24:18;;;;;;;4.57;1.70;;;0.90;99.90;;;;;;5082750;28;20192;-87
2023/10/20 02:26:46;;;;;;;4.15;1.77;;;0.90;99.90;;;;;;5065208;28;20682;-87
2023/10/20 02:29:15;;;;;;;5.55;1.52;;;1.00;99.90;;;;;;5069315;28;20208;-86
2023/10/20 02:31:43;;;;;;;2.88;1.63;;;1.00;99.90;;;;;;5074711;28;20546;-86
2023/10/20 02:34:11;;;;;;;3.88;1.40;;;0.90;99.90;;;;;;5065858;28;20232;-87
2023/10/20 02:36:39;;;;;;;3.92;1.48;;;1.00;99.90;;;;;;5078711;28;20303;-87
2023/10/20 02:39:07;;;;;;;3.15;1.60;;;0.90;99.90;;;;;;5083038;28;20196;-86
2023/10/20 02:41:35;;;;;;;2.97;1.50;;;1.00;99.90;;;;;;5084709;28;20786;-86
2023/10/20 02:44:04;;;;;;;3.85;1.50;;;0.90;99.90;;;;;;5076239;28;20715;-88
2023/10/20 02:46:32;;;;;;;3.92;1.90;;;0.90;99.90;;;;;;5073566;28;20223;-87
2023/10/20 02:49:00;;;;;;;2.95;1.70;;;1.00;99.90;;;;;;5068813;28;20203;-87
2023/10/20 02:51:28;;;;;;;4.40;1.80;;;0.90;99.90;;;;;;5087927;28;20196;-88
2023/10/20 02:53:56;;;;;;;3.20;1.20;;;0.90;99.90;;;;;;5065187;28;20195;-88
2023/10/20 02:56:23;;;;;;;3.42;1.58;;;0.90;99.90;;;;;;5085164;28;20207;-87
2023/10/20 02:58:51;;;;;;;2.72;1.40;;;0.70;99.90;;;;;;5067447;28;20224;-88
2023/10/20 03:01:20;;;;;;;4.05;1.83;;;0.80;99.90;;;;;;5062999;28;20620;-88
2023/10/20 03:03:48;;;;;;;3.38;1.73;;;0.90;99.90;;;;;;5080198;28;20193;-88
2023/10/20 03:06:16;;;;;;;3.30;1.83;;;0.90;99.90;;;;;;5087358;28;20188;-87
2023/10/20 03:08:44;;;;;;;3.92;1.60;;;0.90;99.90;;;;;;5084150;28;20191;-86
2023/10/20 03:11:12;;;;;;;3.20;1.73;;;1.00;99.90;;;;;;5087450;28;20203;-88
2023/10/20 03:13:40;;;;;;;2.95;1.67;;;1.00;99.90;;;;;;5085558;28;20192;-87
2023/10/20 03:16:08;;;;;;;3.55;1.88;;;0.90;99.90;;;;;;5090708;28;20275;-87
2023/10/20 03:18:36;;;;;;;5.72;2.22;;;0.90;99.90;;;;;;5089146;28;20311;-88
2023/10/20 03:21:03;;;;;;;5.82;2.78;;;1.00;99.90;;;;;;5084818;28;20211;-89
2023/10/20 03:23:31;;;;;;;4.57;2.15;;;0.90;99.90;;;;;;5090769;28;20207;-85
2023/10/20 03:25:59;;;;;;;6.95;3.28;;;1.00;99.90;;;;;;5089666;28;20287;-86
2023/10/20 03:28:27;;;;;;;5.97;2.88;;;1.00;99.90;;;;;;5091267;28;20191;-88
2023/10/20 03:30:54;;;;;;;6.82;2.47;;;0.90;99.90;;;;;;5090610;28;20192;-86
2023/10/20 03:33:22;;;;;;;6.05;2.72;;;0.90;99.90;;;;;;5070344;28;20220;-87
2023/10/20 03:36:03;;;;;;;5.35;2.92;;;0.90;99.90;;;;;;5054055;28;20295;-85
2023/10/20 03:38:32;;;;;;;4.35;2.40;;;1.10;99.90;;;;;;5079427;28;20188;-88
2023/10/20 03:41:09;;;;;;;7.03;2.67;;;1.00;99.90;;;;;;5067842;28;20200;-87
2023/10/20 03:43:38;;;;;;;7.18;2.90;;;0.90;99.90;;;;;;5069947;28;20188;-85
2023/10/20 03:46:05;;;;;;;4.82;2.47;;;0.90;99.90;;;;;;5085441;28;20250;-87
2023/10/20 03:48:35;;;;;;;5.05;2.33;;;0.90;99.90;;;;;;5069541;28;20189;-87
2023/10/20 03:51:08;;;;;;;6.63;2.95;;;0.90;99.90;;;;;;5079165;28;20196;-88
2023/10/20 03:53:46;;;;;;;5.43;2.55;;;0.90;99.90;;;;;;5084910;28;20653;-88
2023/10/20 03:56:18;;;;;;;4.47;2.33;;;0.90;99.90;;;;;;5071318;28;20195;-88
2023/10/20 03:58:46;;;;;;;5.47;2.55;;;0.90;99.90;;;;;;5079570;28;20295;-88
2023/10/20 04:01:14;;;;;;;4.95;2.50;;;0.90;99.90;;;;;;5071360;28;20205;-88
2023/10/20 04:03:50;;;;;;;5.53;2.55;;;1.00;99.90;;;;;;5087430;28;20188;-86
2023/10/20 04:06:20;;;;;;;5.00;2.60;;;0.90;99.90;;;;;;5072607;28;20189;-87
2023/10/20 04:08:48;;;;;;;5.15;2.33;;;0.90;99.90;;;;;;5084815;28;20184;-88
2023/10/20 04:11:17;;;;;;;5.32;2.50;;;0.90;99.90;;;;;;5067447;28;20199;-88
2023/10/20 04:13:44;;;;;;;5.63;2.95;;;0.90;99.90;;;;;;5080605;28;20184;-88
2023/10/20 04:16:13;;;;;;;5.53;3.08;;;0.90;99.90;;;;;;5086152;28;20216;-88
2023/10/20 04:18:42;;;;;;;6.95;2.63;;;0.80;99.90;;;;;;5090133;28;20192;-86
2023/10/20 04:21:13;;;;;;;6.85;2.75;;;1.00;99.90;;;;;;5086098;28;20215;-87
2023/10/20 04:23:43;;;;;;;8.10;3.10;;;0.90;99.90;;;;;;5083271;28;20191;-86
2023/10/20 04:26:20;;;;;;;8.50;2.67;;;0.90;99.90;;;;;;5085505;28;20238;-87
2023/10/20 04:29:03;;;;;;;7.40;2.90;;;0.90;99.90;;;;;;5080592;28;20332;-88
2023/10/20 04:51:19;;;;;;;5.45;3.15;;;0.80;99.90;;;;;;5076441;28;20195;-87
2023/10/20 04:53:53;;;;;;;5.60;2.67;;;0.80;99.90;;;;;;5059773;28;20847;-87
2023/10/20 04:56:32;;;;;;;6.47;2.63;;;0.80;99.90;;;;;;5061540;28;20199;-86
2023/10/20 04:59:10;;;;;;;3.63;1.95;;;0.90;99.90;;;;;;5088095;28;20202;-87
2023/10/20 05:04:16;;;;;;;5.43;2.10;;;0.80;99.90;;;;;;5076917;28;20234;-87
2023/10/20 05:06:44;;;;;;;5.82;2.60;;;0.80;99.90;;;;;;5083912;28;20658;-87
2023/10/20 05:09:15;;;;;;;4.95;2.33;;;0.90;99.90;;;;;;5088929;28;20270;-87
2023/10/20 05:11:43;;;;;;;4.95;2.35;;;0.80;99.90;;;;;;5085416;28;20181;-87
2023/10/20 05:14:10;;;;;;;4.68;1.80;;;0.80;99.90;;;;;;5061308;28;20191;-88
2023/10/20 05:16:38;;;;;;;6.10;2.30;;;0.90;99.90;;;;;;5080818;28;20196;-87
2023/10/20 05:19:06;;;;;;;6.07;2.50;;;0.90;99.90;;;;;;5085873;28;20196;-86
2023/10/20 05:21:34;;;;;;;5.90;2.90;;;0.80;99.90;;;;;;5055004;28;20911;-87
2023/10/20 05:24:03;;;;;;;6.53;3.08;;;0.80;99.90;;;;;;5092955;28;20181;-88
2023/10/20 05:26:32;;;;;;;7.50;3.20;;;0.80;99.90;;;;;;5089209;28;20191;-87
2023/10/20 05:29:01;;;;;;;9.50;3.10;;;0.90;99.90;;;;;;5088803;28;20188;-88
2023/10/20 05:31:31;;;;;;;7.25;3.20;;;0.80;99.90;;;;;;5077010;28;20188;-88
2023/10/20 05:33:59;;;;;;;7.07;2.80;;;0.80;99.90;;;;;;5077751;28;20228;-86
2023/10/20 05:36:26;;;;;;;8.02;2.97;;;0.80;99.90;;;;;;5083882;28;20851;-87
2023/10/20 05:38:54;;;;;;;6.63;3.45;;;0.70;99.90;;;;;;5083570;28;20208;-86
2023/10/20 05:41:22;;;;;;;7.35;3.75;;;0.80;99.90;;;;;;5080309;28;20204;-86
2023/10/20 05:43:52;;;;;;;6.40;3.38;;;0.80;99.90;;;;;;5068545;28;20638;-88
2023/10/20 05:46:20;;;;;;;8.02;3.25;;;0.80;99.90;;;;;;5088231;28;20207;-87
2023/10/20 05:48:48;;;;;;;5.40;2.80;;;0.80;99.90;;;;;;5084418;28;20245;-88
2023/10/20 05:51:16;;;;;;;7.63;3.58;;;0.80;99.90;;;;;;5062362;28;20190;-88
2023/10/20 05:53:43;;;;;;;8.95;3.40;;;0.80;99.90;;;;;;5088307;28;20233;-88
2023/10/20 05:56:11;;;;;;;6.68;3.00;;;0.70;99.90;;;;;;5079725;28;20607;-88
2023/10/20 05:58:40;;;;;;;10.82;3.85;;;0.80;99.90;;;;;;5063619;28;20189;-89
2023/10/20 06:01:11;;;;;;;8.18;3.20;;;0.80;99.90;;;;;;5073802;28;20224;-87
2023/10/20 06:03:39;;;;;;;6.75;3.20;;;0.70;99.90;;;;;;5082910;28;20187;-87
2023/10/20 06:06:07;;;;;;;10.05;4.47;;;0.70;99.90;;;;;;5083690;28;20281;-87
2023/10/20 06:08:34;;;;;;;10.23;4.07;;;0.70;99.90;;;;;;5097343;28;20245;-87
2023/10/20 06:11:05;;;;;;;9.10;3.58;;;0.70;99.90;;;;;;5087976;28;20196;-88
2023/10/20 06:13:35;;;;;;;9.57;3.75;;;0.80;99.90;;;;;;5084366;28;20200;-88
2023/10/20 06:16:12;;;;;;;8.48;4.18;;;0.80;99.90;;;;;;5054898;28;20200;-88
2023/10/20 06:18:42;;;;;;;9.30;3.88;;;0.80;99.90;;;;;;5073543;28;20195;-88
2023/10/20 06:21:15;;;;;;;9.00;4.32;;;0.80;99.90;;;;;;5068182;28;20189;-88
2023/10/20 06:23:43;;;;;;;10.30;3.88;;;0.70;99.90;;;;;;5087777;28;20183;-88
2023/10/20 06:26:12;;;;;;;10.35;4.30;;;0.70;99.90;;;;;;5084076;28;20643;-87
2023/10/20 06:28:40;;;;;;;8.55;3.67;;;0.80;99.90;;;;;;5081324;28;20188;-87
2023/10/20 06:34:40;;;;;;;7.78;3.45;;;0.80;99.90;;;;;;5087783;28;20805;-87
2023/10/20 06:36:48;;;;;;;10.57;3.90;;;0.90;99.90;;;;;;5079700;28;20253;-88
2023/10/20 06:39:18;;;;;;;10.48;3.67;;;1.00;99.90;;;;;;5070899;28;20239;-88
2023/10/20 06:41:47;;;;;;;9.90;3.70;;;0.90;99.90;;;;;;5085949;28;20204;-86
2023/10/20 06:44:19;;;;;;;9.52;3.78;;;0.90;99.90;;;;;;5085732;28;20902;-87
2023/10/20 06:46:47;;;;;;;8.30;3.60;;;0.80;99.90;;;;;;5082138;28;20207;-87
2023/10/20 06:49:18;;;;;;;8.80;3.78;;;0.90;99.90;;;;;;5068924;28;20277;-88
2023/10/20 06:51:47;;;;;;;5.78;2.95;;;0.80;99.90;;;;;;5109193;28;20244;-88
2023/10/20 06:54:17;;;;;;;9.48;3.13;;;0.90;99.90;;;;;;5096165;28;20197;-88
2023/10/20 06:56:45;;;;;;;6.43;3.35;;;0.90;99.90;;;;;;5084281;28;20980;-89
2023/10/20 06:59:16;;;;;;;6.78;3.63;;;0.90;99.90;;;;;;5093440;28;20280;-89
2023/10/20 07:01:44;;;;;;;7.03;3.30;;;0.90;99.90;;;;;;5088902;28;20212;-88
2023/10/20 07:04:13;;;;;;;6.10;2.80;;;0.90;99.90;;;;;;5071968;28;20274;-88
2023/10/20 07:06:41;;;;;;;9.00;3.90;;;0.90;99.90;;;;;;5094993;28;20196;-88
2023/10/20 07:09:13;;;;;;;7.13;3.00;;;0.90;99.90;;;;;;5072562;28;20181;-87
2023/10/20 07:11:42;;;;;;;8.50;3.60;;;1.00;99.90;;;;;;5085393;28;20192;-88
2023/10/20 07:14:11;;;;;;;7.10;3.58;;;0.90;99.90;;;;;;5084718;28;20189;-89
2023/10/20 07:16:38;;;;;;;8.85;2.92;;;1.00;99.90;;;;;;5089410;28;20180;-87
2023/10/20 07:19:07;;;;;;;9.90;4.07;;;0.90;99.90;;;;;;5087520;28;20188;-87
2023/10/20 07:21:35;;;;;;;8.15;3.15;;;1.00;99.90;;;;;;5074589;28;20185;-87
2023/10/20 07:24:03;;;;;;;8.63;3.58;;;1.00;99.90;;;;;;5073182;28;20195;-87
2023/10/20 07:26:31;;;;;;;10.93;4.03;;;1.00;99.90;;;;;;5092029;28;20192;-88
2023/10/20 07:28:58;;;;;;;8.65;3.42;;;1.00;99.90;;;;;;5090426;28;20237;-87
2023/10/20 07:31:27;;;;;;;6.50;3.47;;;1.00;99.90;;;;;;5087469;28;20234;-87
2023/10/20 07:33:56;;;;;;;6.65;2.58;;;0.90;99.90;;;;;;5086078;28;20305;-87
2023/10/20 07:36:24;;;;;;;6.28;3.10;;;1.00;99.90;;;;;;5088455;28;20192;-88
2023/10/20 07:38:51;;;;;;;7.32;3.13;;;1.10;99.90;;;;;;5072893;28;20195;-87
2023/10/20 07:41:19;;;;;;;8.23;3.10;;;1.00;99.90;;;;;;5090508;28;20271;-87
2023/10/20 07:43:48;;;;;;;7.70;2.85;;;1.10;99.90;;;;;;5068739;28;20677;-87
2023/10/20 07:46:17;;;;;;;5.20;2.53;;;1.00;99.90;;;;;;5080766;28;21217;-86
2023/10/20 07:48:45;;;;;;;6.30;3.05;;;1.00;99.90;;;;;;5085657;28;20658;-87
2023/10/20 07:51:13;;;;;;;4.95;2.45;;;1.10;99.90;;;;;;5100112;28;20189;-88
2023/10/20 07:53:41;;;;;;;5.80;2.95;;;1.10;99.90;;;;;;5069340;28;20677;-88
2023/10/20 07:56:09;;;;;;;5.35;2.38;;;1.00;99.90;;;;;;5071343;28;20673;-87
2023/10/20 07:58:37;;;;;;;6.40;2.78;;;1.10;99.90;;;;;;5073744;28;20192;-86
2023/10/20 08:01:06;;;;;;;5.00;2.47;;;1.10;99.90;;;;;;5088401;28;20192;-87
2023/10/20 08:03:34;;;;;;;6.45;2.17;;;1.20;99.90;;;;;;5088644;28;20272;-87
2023/10/20 08:06:05;;;;;;;4.32;2.28;;;1.20;99.90;;;;;;5087519;28;20197;-87
2023/10/20 08:08:33;;;;;;;6.20;2.22;;;1.20;99.90;;;;;;5087041;28;20191;-87
2023/10/20 08:11:04;;;;;;;4.53;2.35;;;1.10;99.90;;;;;;5082702;28;20283;-87
2023/10/20 08:13:33;;;;;;;5.07;2.58;;;1.20;99.90;;;;;;5086529;28;20184;-87
2023/10/20 08:16:06;;;;;;;5.00;2.63;;;1.20;99.90;;;;;;5080368;28;20285;-87
2023/10/20 08:18:35;;;;;;;4.57;2.58;;;1.20;99.90;;;;;;5085351;28;20196;-87
2023/10/20 08:21:04;;;;;;;5.10;2.38;;;1.20;99.90;;;;;;5069655;28;20207;-85
2023/10/20 08:23:33;;;;;;;6.50;2.58;;;1.30;99.90;;;;;;5089531;28;20212;-86
2023/10/20 08:26:01;;;;;;;4.22;2.10;;;1.30;99.90;;;;;;5088068;28;20208;-87
2023/10/20 08:28:29;;;;;;;4.18;2.15;;;1.30;99.90;;;;;;5076829;28;20193;-86
2023/10/20 08:31:13;;;;;;;3.40;1.88;;;1.40;99.90;;;;;;5090619;28;20184;-86
2023/10/20 08:33:42;;;;;;;3.88;2.28;;;1.30;99.90;;;;;;5078880;28;20316;-87
2023/10/20 08:36:15;;;;;;;4.10;2.13;;;1.40;99.90;;;;;;5073285;28;20570;-86
2023/10/20 08:38:46;;;;;;;4.20;2.25;;;1.40;99.90;;;;;;5095432;28;20206;-86
2023/10/20 08:41:22;;;;;;;4.65;2.38;;;1.30;99.90;;;;;;5075701;28;20275;-85
2023/10/20 08:43:50;;;;;;;3.45;1.80;;;1.30;99.90;;;;;;5085930;28;20200;-85
2023/10/20 08:46:22;;;;;;;4.55;2.00;;;1.40;99.90;;;;;;5087009;28;20189;-87
2023/10/20 08:48:50;;;;;;;6.20;2.08;;;1.40;99.90;;;;;;5071778;28;20282;-86
2023/10/20 08:51:18;;;;;;;4.47;2.10;;;1.40;99.90;;;;;;5086964;28;20191;-85
2023/10/20 08:53:46;;;;;;;5.50;2.20;;;1.40;99.90;;;;;;5081457;28;20192;-87
2023/10/20 08:56:14;;;;;;;4.50;2.13;;;1.30;99.90;;;;;;5084772;28;20196;-86
2023/10/20 08:58:46;;;;;;;3.38;1.80;;;1.30;99.90;;;;;;5076721;28;20602;-84
2023/10/20 09:01:16;;;;;;;3.80;2.10;;;1.30;99.90;;;;;;5086647;28;20189;-86
2023/10/20 09:03:48;;;;;;;4.93;2.17;;;1.30;99.90;;;;;;5071756;28;20204;-86
2023/10/20 09:06:18;;;;;;;5.68;2.20;;;1.40;99.90;;;;;;5085194;28;20279;-86
2023/10/20 09:08:50;;;;;;;3.50;1.83;;;1.40;99.90;;;;;;5074952;28;20194;-86
2023/10/20 09:11:30;;;;;;;3.75;1.95;;;1.40;99.90;;;;;;5081399;28;20272;-86
2023/10/20 09:13:59;;;;;;;3.70;2.15;;;1.50;99.90;;;;;;5070481;28;20658;-86
2023/10/20 09:16:27;;;;;;;5.97;2.30;;;1.40;99.90;;;;;;5082138;28;20208;-87
2023/10/20 09:18:55;;;;;;;4.40;2.10;;;1.50;99.90;;;;;;5088841;28;20180;-86
2023/10/20 09:21:24;;;;;;;5.55;1.90;;;1.50;99.90;;;;;;5076997;28;20185;-86
2023/10/20 09:24:04;;;;;;;3.42;2.00;;;1.50;99.90;;;;;;5070766;28;20698;-86
2023/10/20 09:26:34;;;;;;;3.85;1.95;;;1.50;99.90;;;;;;5076920;28;20661;-87
2023/10/20 09:29:06;;;;;;;3.88;1.88;;;1.50;99.90;;;;;;5088184;28;20194;-86
2023/10/20 09:31:38;;;;;;;4.38;2.22;;;1.40;99.90;;;;;;5069348;28;20199;-86
2023/10/20 09:34:06;;;;;;;3.25;2.00;;;1.50;99.90;;;;;;5064794;28;20247;-86
2023/10/20 09:36:36;;;;;;;5.97;1.98;;;1.50;99.90;;;;;;5102221;28;20194;-86
2023/10/20 09:39:10;;;;;;;3.50;1.70;;;1.50;99.90;;;;;;5069835;28;20208;-87
2023/10/20 09:41:48;;;;;;;3.75;1.77;;;1.50;99.90;;;;;;5078323;28;20205;-86
2023/10/20 09:44:33;;;;;;;3.83;1.90;;;1.50;99.90;;;;;;5081637;28;20681;-86
2023/10/20 09:47:22;;;;;;;4.47;1.98;;;1.50;99.90;;;;;;5066574;28;20184;-86
2023/10/20 09:49:54;;;;;;;3.40;2.00;;;1.50;99.90;;;;;;5094372;28;20195;-85
2023/10/20 09:52:22;;;;;;;7.15;2.38;;;1.50;99.90;;;;;;5054441;28;20194;-87
2023/10/20 09:54:51;;;;;;;3.25;2.03;;;1.50;99.90;;;;;;5062725;28;20216;-86
2023/10/20 09:57:22;;;;;;;3.30;2.20;;;1.50;99.90;;;;;;5094043;28;20757;-87
2023/10/20 09:59:54;;;;;;;6.78;2.35;;;1.60;99.90;;;;;;5085051;28;20184;-86
2023/10/20 10:02:28;;;;;;;5.32;2.15;;;1.60;99.90;;;;;;5055286;28;20222;-86
2023/10/20 10:04:57;;;;;;;4.60;2.13;;;1.60;99.90;;;;;;5089178;28;20179;-86
2023/10/20 10:07:33;;;;;;;7.30;2.30;;;1.60;99.90;;;;;;5074069;28;20244;-86
2023/10/20 10:10:02;;;;;;;4.38;2.20;;;1.60;99.90;;;;;;5092438;28;20179;-86
2023/10/20 10:12:32;;;;;;;6.93;2.10;;;1.50;99.90;;;;;;5082468;28;20893;-87
2023/10/20 10:15:12;;;;;;;3.47;2.22;;;1.60;99.90;;;;;;5088144;28;20181;-88
2023/10/20 10:17:49;;;;;;;4.85;2.47;;;1.70;99.90;;;;;;5084633;28;20184;-87
2023/10/20 10:20:24;;;;;;;4.40;1.92;;;1.60;99.90;;;;;;5082695;28;20609;-87
2023/10/20 10:23:05;;;;;;;3.78;2.17;;;1.60;99.90;;;;;;5074095;28;20222;-87
2023/10/20 10:25:39;;;;;;;6.03;2.15;;;1.60;99.90;;;;;;5079760;28;20184;-86
2023/10/20 10:28:09;;;;;;;3.72;2.05;;;1.70;99.90;;;;;;5099897;28;20279;-86
2023/10/20 10:30:39;;;;;;;7.18;2.30;;;1.60;99.90;;;;;;5081499;28;20184;-86
2023/10/20 10:33:13;;;;;;;4.40;2.13;;;1.70;99.90;;;;;;5088523;28;20207;-86
2023/10/20 10:35:41;;;;;;;4.53;2.22;;;1.60;99.90;;;;;;5075209;28;20249;-87
2023/10/20 10:38:23;;;;;;;3.45;1.90;;;1.60;99.90;;;;;;5087831;28;20662;-87
2023/10/20 10:40:52;;;;;;;72.85;46.40;;;1.60;99.90;;;;;;5102809;28;20188;-86
2023/10/20 10:43:21;;;;;;;20.63;16.60;;;1.70;99.90;;;;;;5088265;28;20200;-86
2023/10/20 10:45:52;;;;;;;18.80;14.65;;;1.60;99.90;;;;;;5074894;28;20196;-87
2023/10/20 10:48:27;;;;;;;15.10;12.93;;;1.70;99.90;;;;;;5086081;28;20193;-86
2023/10/20 10:50:56;;;;;;;10.07;7.97;;;1.70;99.90;;;;;;5087970;28;20180;-85
2023/10/20 10:53:26;;;;;;;5.63;3.55;;;1.70;99.90;;;;;;5078732;28;20202;-86
2023/10/20 10:55:54;;;;;;;6.18;2.25;;;1.70;99.90;;;;;;5090924;28;20662;-86
2023/10/20 10:58:23;;;;;;;6.25;3.45;;;1.70;99.90;;;;;;5089272;28;20188;-86
2023/10/20 11:00:51;;;;;;;4.60;2.15;;;1.70;99.90;;;;;;5084179;28;20278;-86
2023/10/20 11:03:19;;;;;;;6.20;2.75;;;1.70;99.90;;;;;;5085886;28;20227;-86
2023/10/20 11:05:51;;;;;;;3.55;1.95;;;1.70;99.90;;;;;;5070786;28;20184;-86
2023/10/20 11:08:19;;;;;;;4.32;2.35;;;1.70;99.90;;;;;;5084748;28;20203;-86
2023/10/20 11:10:49;;;;;;;2.97;1.60;;;1.70;99.90;;;;;;5084250;28;20203;-86
2023/10/20 11:13:17;;;;;;;5.43;2.45;;;1.70;99.90;;;;;;5091530;28;20184;-87
2023/10/20 11:15:49;;;;;;;3.92;2.45;;;1.70;99.90;;;;;;5088968;28;20654;-87
2023/10/20 11:18:20;;;;;;;4.43;2.30;;;1.70;99.90;;;;;;5069691;28;20192;-86
2023/10/20 11:20:49;;;;;;;4.78;2.15;;;1.70;99.90;;;;;;5091604;28;20192;-87
2023/10/20 11:23:30;;;;;;;3.97;1.92;;;1.70;99.90;;;;;;5079548;28;20205;-86
2023/10/20 11:26:02;;;;;;;3.78;2.03;;;1.70;99.90;;;;;;5064074;28;20191;-86
2023/10/20 11:28:30;;;;;;;4.38;2.03;;;1.70;99.90;;;;;;5094850;28;20654;-86
2023/10/20 11:30:59;;;;;;;4.05;2.50;;;1.70;99.90;;;;;;5080822;28;20625;-86
2023/10/20 11:33:27;;;;;;;4.13;2.20;;;1.70;99.90;;;;;;5077295;28;20235;-86
2023/10/20 11:35:59;;;;;;;7.38;2.13;;;1.70;99.90;;;;;;5085321;28;20199;-84
2023/10/20 11:38:32;;;;;;;3.22;1.88;;;1.80;99.90;;;;;;5073763;28;20188;-86
2023/10/20 11:41:00;;;;;;;2.70;1.50;;;1.80;99.90;;;;;;5085150;28;20261;-86
2023/10/20 11:43:28;;;;;;;4.43;1.92;;;1.70;99.90;;;;;;5088819;28;20402;-87
2023/10/20 11:45:56;;;;;;;3.50;1.70;;;1.80;99.90;;;;;;5093740;28;20204;-85
2023/10/20 11:48:23;;;;;;;4.47;2.67;;;1.80;99.90;;;;;;5091942;28;20188;-87
2023/10/20 11:50:51;;;;;;;4.50;2.95;;;1.70;99.90;;;;;;5085537;28;20184;-87
2023/10/20 11:53:19;;;;;;;2.80;1.80;;;1.80;99.90;;;;;;5072455;28;20188;-85
2023/10/20 11:55:47;;;;;;;2.60;1.27;;;1.70;99.90;;;;;;5082131;28;20234;-87
2023/10/20 11:58:16;;;;;;;2.75;1.67;;;1.80;99.90;;;;;;5083507;28;20660;-87
2023/10/20 12:00:45;;;;;;;3.38;1.60;;;1.80;99.90;;;;;;5088637;28;20192;-87
2023/10/20 12:03:13;;;;;;;5.80;4.38;;;1.80;99.90;;;;;;5067766;28;20745;-87
2023/10/20 12:05:40;;;;;;;3.20;1.90;;;1.80;99.90;;;;;;5080657;28;20523;-85
2023/10/20 12:08:08;;;;;;;3.83;1.75;;;1.80;99.90;;;;;;5087910;28;20241;-87
2023/10/20 12:10:38;;;;;;;3.38;2.17;;;1.80;99.90;;;;;;5084881;28;20191;-87
2023/10/20 12:13:08;;;;;;;3.13;1.70;;;1.80;99.90;;;;;;5084086;28;20215;-87
2023/10/20 12:15:38;;;;;;;2.97;1.27;;;1.80;99.90;;;;;;5083826;28;20180;-86
2023/10/20 12:18:06;;;;;;;3.03;1.50;;;1.80;99.90;;;;;;5089672;28;20191;-86
2023/10/20 12:20:34;;;;;;;3.20;1.92;;;1.80;99.90;;;;;;5083668;28;20192;-86
2023/10/20 12:23:03;;;;;;;2.45;1.90;;;1.80;99.90;;;;;;5090097;28;20274;-85
2023/10/20 12:25:30;;;;;;;4.45;1.63;;;1.80;99.90;;;;;;5086229;28;20191;-86
2023/10/20 12:27:59;;;;;;;2.45;1.77;;;1.80;99.90;;;;;;5088466;28;20176;-87
2023/10/20 12:30:27;;;;;;;4.40;2.13;;;1.70;99.90;;;;;;5077550;28;20195;-86
2023/10/20 12:32:55;;;;;;;2.33;1.38;;;1.60;99.90;;;;;;5079762;28;20290;-86
2023/10/20 12:35:23;;;;;;;4.15;2.90;;;1.70;99.90;;;;;;5085324;28;20227;-87
2023/10/20 12:37:51;;;;;;;3.35;1.48;;;1.80;99.90;;;;;;5060866;28;20276;-87
2023/10/20 12:40:19;;;;;;;2.88;1.52;;;1.80;99.90;;;;;;5084554;28;20192;-86
2023/10/20 12:42:53;;;;;;;3.60;2.50;;;1.70;99.90;;;;;;5070952;28;20187;-87
2023/10/20 12:45:30;;;;;;;2.47;1.60;;;1.70;99.90;;;;;;5096887;27;20191;-86
2023/10/20 12:47:57;;;;;;;3.20;1.75;;;1.70;99.90;;;;;;5078710;28;20184;-87
2023/10/20 12:50:32;;;;;;;3.50;1.90;;;1.70;99.90;;;;;;5069228;28;20258;-86
2023/10/20 12:53:10;;;;;;;3.13;1.90;;;1.80;99.90;;;;;;5077867;28;20184;-86
2023/10/20 12:55:40;;;;;;;2.70;1.50;;;1.70;99.90;;;;;;5072623;28;20675;-85
2023/10/20 12:58:09;;;;;;;3.85;1.73;;;1.70;99.90;;;;;;5080942;28;20994;-86
2023/10/20 13:00:39;;;;;;;2.63;1.25;;;1.70;99.90;;;;;;5075033;28;20239;-86
2023/10/20 13:03:07;;;;;;;2.03;1.30;;;1.70;99.90;;;;;;5068527;28;20193;-87
2023/10/20 13:05:35;;;;;;;3.40;1.77;;;1.70;99.90;;;;;;5080357;28;20185;-88
2023/10/20 13:08:03;;;;;;;3.50;1.70;;;1.70;99.90;;;;;;5080569;28;20188;-86
2023/10/20 13:10:36;;;;;;;3.28;1.65;;;1.70;99.90;;;;;;5085433;28;20262;-88
2023/10/20 13:13:04;;;;;;;2.92;1.42;;;1.70;99.90;;;;;;5086740;28;20211;-86
2023/10/20 13:15:31;;;;;;;6.53;5.75;;;1.70;99.90;;;;;;5083915;28;20897;-86
2023/10/20 13:17:59;;;;;;;3.75;1.95;;;1.70;99.90;;;;;;5068263;28;20189;-86
2023/10/20 13:20:28;;;;;;;4.93;2.30;;;1.70;99.90;;;;;;5085984;28;20199;-86
2023/10/20 13:22:56;;;;;;;8.80;1.98;;;1.70;99.90;;;;;;5076127;28;20189;-85
2023/10/20 13:25:27;;;;;;;5.35;1.83;;;1.70;99.90;;;;;;5095817;28;20324;-86
2023/10/20 13:27:54;;;;;;;2.75;1.42;;;1.60;99.90;;;;;;5084787;28;20183;-86
2023/10/20 13:30:22;;;;;;;4.80;1.75;;;1.70;99.90;;;;;;5084952;28;20198;-85
2023/10/20 13:32:50;;;;;;;3.95;1.40;;;1.70;99.90;;;;;;5081669;28;20192;-85